sensor_id;sensor_type;location;lat;lon;timestamp;P1;durP1;ratioP1;P2;durP2;ratioP2
10493;SDS011;5294;49.410;8.698;2022-09-30T00:01:15;4.40;;;4.00;;
10493;SDS011;5294;49.410;8.698;2022-09-30T00:03:41;4.30;;;3.90;;
10493;SDS011;5294;49.410;8.698;2022-09-30T00:06:12;5.33;;;4.23;;
10493;SDS011;5294;49.410;8.698;2022-09-30T00:08:38;4.73;;;3.93;;
10493;SDS011;5294;49.410;8.698;2022-09-30T00:11:05;3.97;;;3.67;;
10493;SDS011;5294;49.410;8.698;2022-09-30T00:13:35;5.20;;;3.87;;
10493;SDS011;5294;49.410;8.698;2022-09-30T00:16:07;4.73;;;3.87;;
10493;SDS011;5294;49.410;8.698;2022-09-30T00:18:33;5.33;;;4.13;;
10493;SDS011;5294;49.410;8.698;2022-09-30T00:21:00;4.37;;;3.97;;
10493;SDS011;5294;49.410;8.698;2022-09-30T00:23:29;5.70;;;4.03;;
10493;SDS011;5294;49.410;8.698;2022-09-30T00:25:59;4.53;;;3.87;;
10493;SDS011;5294;49.410;8.698;2022-09-30T00:28:25;4.33;;;3.73;;
10493;SDS011;5294;49.410;8.698;2022-09-30T00:30:51;4.60;;;3.63;;
10493;SDS011;5294;49.410;8.698;2022-09-30T00:33:19;4.87;;;3.80;;
10493;SDS011;5294;49.410;8.698;2022-09-30T00:35:48;4.27;;;3.60;;
10493;SDS011;5294;49.410;8.698;2022-09-30T00:38:14;4.33;;;3.93;;
10493;SDS011;5294;49.410;8.698;2022-09-30T00:40:40;4.40;;;4.00;;
10493;SDS011;5294;49.410;8.698;2022-09-30T00:43:11;6.20;;;4.13;;
10493;SDS011;5294;49.410;8.698;2022-09-30T00:45:41;4.40;;;3.97;;
10493;SDS011;5294;49.410;8.698;2022-09-30T00:48:16;5.00;;;4.27;;
10493;SDS011;5294;49.410;8.698;2022-09-30T00:50:44;6.23;;;4.43;;
10493;SDS011;5294;49.410;8.698;2022-09-30T00:53:18;4.60;;;4.20;;
10493;SDS011;5294;49.410;8.698;2022-09-30T00:58:28;4.60;;;4.20;;
10493;SDS011;5294;49.410;8.698;2022-09-30T01:01:00;4.17;;;3.87;;
10493;SDS011;5294;49.410;8.698;2022-09-30T01:03:29;4.40;;;4.00;;
10493;SDS011;5294;49.410;8.698;2022-09-30T01:05:58;5.70;;;4.47;;
10493;SDS011;5294;49.410;8.698;2022-09-30T01:08:24;5.57;;;4.33;;
10493;SDS011;5294;49.410;8.698;2022-09-30T01:10:52;4.70;;;4.30;;
10493;SDS011;5294;49.410;8.698;2022-09-30T01:13:17;4.40;;;4.10;;
10493;SDS011;5294;49.410;8.698;2022-09-30T01:15:50;4.60;;;4.20;;
10493;SDS011;5294;49.410;8.698;2022-09-30T01:21:07;4.80;;;4.40;;
10493;SDS011;5294;49.410;8.698;2022-09-30T01:26:20;5.57;;;4.50;;
10493;SDS011;5294;49.410;8.698;2022-09-30T01:31:46;4.60;;;4.20;;
10493;SDS011;5294;49.410;8.698;2022-09-30T01:40:23;5.03;;;4.33;;
10493;SDS011;5294;49.410;8.698;2022-09-30T01:43:34;5.00;;;4.30;;
10493;SDS011;5294;49.410;8.698;2022-09-30T01:45:41;4.70;;;4.30;;
10493;SDS011;5294;49.410;8.698;2022-09-30T01:48:11;5.07;;;3.73;;
10493;SDS011;5294;49.410;8.698;2022-09-30T01:55:43;4.80;;;4.40;;
10493;SDS011;5294;49.410;8.698;2022-09-30T01:58:12;7.27;;;4.23;;
10493;SDS011;5294;49.410;8.698;2022-09-30T02:00:41;5.03;;;4.53;;
10493;SDS011;5294;49.410;8.698;2022-09-30T02:03:10;4.53;;;4.13;;
10493;SDS011;5294;49.410;8.698;2022-09-30T02:05:41;5.80;;;4.10;;
10493;SDS011;5294;49.410;8.698;2022-09-30T02:08:11;5.03;;;4.50;;
10493;SDS011;5294;49.410;8.698;2022-09-30T02:10:41;4.57;;;4.17;;
10493;SDS011;5294;49.410;8.698;2022-09-30T02:13:15;4.47;;;4.10;;
10493;SDS011;5294;49.410;8.698;2022-09-30T02:15:43;6.20;;;4.57;;
10493;SDS011;5294;49.410;8.698;2022-09-30T02:18:12;4.47;;;4.00;;
10493;SDS011;5294;49.410;8.698;2022-09-30T02:20:44;5.13;;;4.27;;
10493;SDS011;5294;49.410;8.698;2022-09-30T02:23:14;4.70;;;4.30;;
10493;SDS011;5294;49.410;8.698;2022-09-30T02:25:44;4.37;;;4.07;;
10493;SDS011;5294;49.410;8.698;2022-09-30T02:28:16;4.70;;;3.90;;
10493;SDS011;5294;49.410;8.698;2022-09-30T02:30:44;7.27;;;4.30;;
10493;SDS011;5294;49.410;8.698;2022-09-30T02:33:14;4.97;;;4.03;;
10493;SDS011;5294;49.410;8.698;2022-09-30T02:35:46;3.97;;;3.53;;
10493;SDS011;5294;49.410;8.698;2022-09-30T02:38:18;5.93;;;3.70;;
10493;SDS011;5294;49.410;8.698;2022-09-30T02:40:48;4.27;;;3.90;;
10493;SDS011;5294;49.410;8.698;2022-09-30T02:43:15;4.50;;;4.00;;
10493;SDS011;5294;49.410;8.698;2022-09-30T02:45:56;4.77;;;4.00;;
10493;SDS011;5294;49.410;8.698;2022-09-30T02:48:33;4.43;;;4.03;;
10493;SDS011;5294;49.410;8.698;2022-09-30T02:53:42;4.50;;;3.90;;
10493;SDS011;5294;49.410;8.698;2022-09-30T02:58:39;4.40;;;4.00;;
10493;SDS011;5294;49.410;8.698;2022-09-30T03:01:11;4.70;;;3.90;;
10493;SDS011;5294;49.410;8.698;2022-09-30T03:03:40;3.90;;;3.60;;
10493;SDS011;5294;49.410;8.698;2022-09-30T03:06:09;5.33;;;3.70;;
10493;SDS011;5294;49.410;8.698;2022-09-30T03:08:38;4.10;;;3.80;;
10493;SDS011;5294;49.410;8.698;2022-09-30T03:11:04;4.57;;;4.10;;
10493;SDS011;5294;49.410;8.698;2022-09-30T03:16:00;4.23;;;3.80;;
10493;SDS011;5294;49.410;8.698;2022-09-30T03:21:16;4.90;;;4.20;;
10493;SDS011;5294;49.410;8.698;2022-09-30T03:44:28;4.90;;;3.80;;
10493;SDS011;5294;49.410;8.698;2022-09-30T03:46:59;4.30;;;3.90;;
10493;SDS011;5294;49.410;8.698;2022-09-30T03:49:27;4.77;;;4.00;;
10493;SDS011;5294;49.410;8.698;2022-09-30T03:51:55;4.47;;;4.00;;
10493;SDS011;5294;49.410;8.698;2022-09-30T03:54:24;4.43;;;3.90;;
10493;SDS011;5294;49.410;8.698;2022-09-30T03:56:50;4.73;;;4.20;;
10493;SDS011;5294;49.410;8.698;2022-09-30T03:59:18;4.23;;;3.93;;
10493;SDS011;5294;49.410;8.698;2022-09-30T04:01:47;5.10;;;4.10;;
10493;SDS011;5294;49.410;8.698;2022-09-30T04:04:13;4.50;;;4.10;;
10493;SDS011;5294;49.410;8.698;2022-09-30T04:06:39;6.03;;;4.00;;
10493;SDS011;5294;49.410;8.698;2022-09-30T04:09:05;4.30;;;3.90;;
10493;SDS011;5294;49.410;8.698;2022-09-30T04:11:31;4.10;;;3.80;;
10493;SDS011;5294;49.410;8.698;2022-09-30T04:13:59;6.17;;;4.10;;
10493;SDS011;5294;49.410;8.698;2022-09-30T04:16:27;4.17;;;3.87;;
10493;SDS011;5294;49.410;8.698;2022-09-30T04:18:53;5.97;;;4.13;;
10493;SDS011;5294;49.410;8.698;2022-09-30T04:21:20;5.70;;;4.10;;
10493;SDS011;5294;49.410;8.698;2022-09-30T04:23:52;5.37;;;3.87;;
10493;SDS011;5294;49.410;8.698;2022-09-30T04:26:18;4.90;;;3.80;;
10493;SDS011;5294;49.410;8.698;2022-09-30T04:28:44;4.60;;;3.93;;
10493;SDS011;5294;49.410;8.698;2022-09-30T04:31:10;4.40;;;4.10;;
10493;SDS011;5294;49.410;8.698;2022-09-30T04:33:39;4.37;;;3.77;;
10493;SDS011;5294;49.410;8.698;2022-09-30T04:36:05;4.63;;;4.20;;
10493;SDS011;5294;49.410;8.698;2022-09-30T04:38:34;5.03;;;4.33;;
10493;SDS011;5294;49.410;8.698;2022-09-30T04:41:03;5.60;;;3.90;;
10493;SDS011;5294;49.410;8.698;2022-09-30T04:43:30;4.03;;;3.63;;
10493;SDS011;5294;49.410;8.698;2022-09-30T04:45:58;6.33;;;4.07;;
10493;SDS011;5294;49.410;8.698;2022-09-30T04:48:24;8.87;;;4.03;;
10493;SDS011;5294;49.410;8.698;2022-09-30T04:50:56;4.57;;;3.50;;
10493;SDS011;5294;49.410;8.698;2022-09-30T04:53:24;4.50;;;4.07;;
10493;SDS011;5294;49.410;8.698;2022-09-30T04:55:50;4.27;;;3.87;;
10493;SDS011;5294;49.410;8.698;2022-09-30T04:58:16;6.37;;;4.03;;
10493;SDS011;5294;49.410;8.698;2022-09-30T05:00:42;5.97;;;3.93;;
10493;SDS011;5294;49.410;8.698;2022-09-30T05:03:08;4.73;;;3.93;;
10493;SDS011;5294;49.410;8.698;2022-09-30T05:05:35;4.20;;;3.90;;
10493;SDS011;5294;49.410;8.698;2022-09-30T05:08:01;4.10;;;3.70;;
10493;SDS011;5294;49.410;8.698;2022-09-30T05:10:27;3.97;;;3.70;;
10493;SDS011;5294;49.410;8.698;2022-09-30T05:12:54;4.40;;;3.27;;
10493;SDS011;5294;49.410;8.698;2022-09-30T05:15:20;4.13;;;3.73;;
10493;SDS011;5294;49.410;8.698;2022-09-30T05:17:49;4.23;;;3.83;;
10493;SDS011;5294;49.410;8.698;2022-09-30T05:20:17;4.83;;;4.30;;
10493;SDS011;5294;49.410;8.698;2022-09-30T05:22:43;5.20;;;4.30;;
10493;SDS011;5294;49.410;8.698;2022-09-30T05:25:12;6.80;;;4.13;;
10493;SDS011;5294;49.410;8.698;2022-09-30T05:27:40;5.30;;;4.03;;
10493;SDS011;5294;49.410;8.698;2022-09-30T05:30:08;5.03;;;4.50;;
10493;SDS011;5294;49.410;8.698;2022-09-30T05:32:34;5.03;;;4.50;;
10493;SDS011;5294;49.410;8.698;2022-09-30T05:35:03;4.60;;;4.20;;
10493;SDS011;5294;49.410;8.698;2022-09-30T05:37:29;5.63;;;4.20;;
10493;SDS011;5294;49.410;8.698;2022-09-30T05:39:55;4.67;;;4.27;;
10493;SDS011;5294;49.410;8.698;2022-09-30T05:42:25;5.47;;;4.60;;
10493;SDS011;5294;49.410;8.698;2022-09-30T05:44:50;5.47;;;4.20;;
10493;SDS011;5294;49.410;8.698;2022-09-30T05:47:16;5.40;;;4.90;;
10493;SDS011;5294;49.410;8.698;2022-09-30T05:49:42;4.73;;;4.20;;
10493;SDS011;5294;49.410;8.698;2022-09-30T05:52:11;5.33;;;4.20;;
10493;SDS011;5294;49.410;8.698;2022-09-30T05:54:38;4.87;;;4.33;;
10493;SDS011;5294;49.410;8.698;2022-09-30T05:57:07;5.50;;;5.00;;
10493;SDS011;5294;49.410;8.698;2022-09-30T05:59:33;5.10;;;4.60;;
10493;SDS011;5294;49.410;8.698;2022-09-30T06:01:59;5.60;;;5.10;;
10493;SDS011;5294;49.410;8.698;2022-09-30T06:04:25;5.60;;;4.80;;
10493;SDS011;5294;49.410;8.698;2022-09-30T06:06:51;6.03;;;5.57;;
10493;SDS011;5294;49.410;8.698;2022-09-30T06:09:19;6.77;;;5.67;;
10493;SDS011;5294;49.410;8.698;2022-09-30T06:11:45;5.23;;;4.73;;
10493;SDS011;5294;49.410;8.698;2022-09-30T06:14:14;6.07;;;4.70;;
10493;SDS011;5294;49.410;8.698;2022-09-30T06:16:42;4.87;;;4.43;;
10493;SDS011;5294;49.410;8.698;2022-09-30T06:19:08;5.63;;;5.00;;
10493;SDS011;5294;49.410;8.698;2022-09-30T06:21:34;5.10;;;4.60;;
10493;SDS011;5294;49.410;8.698;2022-09-30T06:24:02;5.13;;;4.67;;
10493;SDS011;5294;49.410;8.698;2022-09-30T06:26:28;7.13;;;6.50;;
10493;SDS011;5294;49.410;8.698;2022-09-30T06:28:54;11.20;;;6.50;;
10493;SDS011;5294;49.410;8.698;2022-09-30T06:31:22;9.43;;;8.53;;
10493;SDS011;5294;49.410;8.698;2022-09-30T06:33:52;9.80;;;8.90;;
10493;SDS011;5294;49.410;8.698;2022-09-30T06:36:18;9.70;;;8.70;;
10493;SDS011;5294;49.410;8.698;2022-09-30T06:38:44;8.97;;;8.27;;
10493;SDS011;5294;49.410;8.698;2022-09-30T06:41:15;8.97;;;8.13;;
10493;SDS011;5294;49.410;8.698;2022-09-30T06:43:41;6.90;;;5.47;;
10493;SDS011;5294;49.410;8.698;2022-09-30T06:46:07;7.27;;;5.80;;
10493;SDS011;5294;49.410;8.698;2022-09-30T06:48:34;6.77;;;6.10;;
10493;SDS011;5294;49.410;8.698;2022-09-30T06:51:00;8.47;;;7.70;;
10493;SDS011;5294;49.410;8.698;2022-09-30T06:53:26;7.90;;;7.20;;
10493;SDS011;5294;49.410;8.698;2022-09-30T06:55:56;9.73;;;8.83;;
10493;SDS011;5294;49.410;8.698;2022-09-30T06:58:22;9.20;;;8.40;;
10493;SDS011;5294;49.410;8.698;2022-09-30T07:00:57;10.40;;;9.50;;
10493;SDS011;5294;49.410;8.698;2022-09-30T07:03:25;9.97;;;9.17;;
10493;SDS011;5294;49.410;8.698;2022-09-30T07:05:56;10.00;;;9.10;;
10493;SDS011;5294;49.410;8.698;2022-09-30T07:08:22;10.47;;;9.33;;
10493;SDS011;5294;49.410;8.698;2022-09-30T07:10:50;9.73;;;8.83;;
10493;SDS011;5294;49.410;8.698;2022-09-30T07:13:18;9.30;;;8.43;;
10493;SDS011;5294;49.410;8.698;2022-09-30T07:15:44;9.33;;;8.53;;
10493;SDS011;5294;49.410;8.698;2022-09-30T07:18:10;8.30;;;7.50;;
10493;SDS011;5294;49.410;8.698;2022-09-30T07:20:36;10.10;;;7.40;;
10493;SDS011;5294;49.410;8.698;2022-09-30T07:23:02;8.13;;;6.33;;
10493;SDS011;5294;49.410;8.698;2022-09-30T07:25:28;7.27;;;6.57;;
10493;SDS011;5294;49.410;8.698;2022-09-30T07:27:56;6.77;;;6.17;;
10493;SDS011;5294;49.410;8.698;2022-09-30T07:30:22;7.10;;;5.80;;
10493;SDS011;5294;49.410;8.698;2022-09-30T07:32:50;6.70;;;6.07;;
10493;SDS011;5294;49.410;8.698;2022-09-30T07:35:17;7.20;;;6.30;;
10493;SDS011;5294;49.410;8.698;2022-09-30T07:37:45;9.17;;;5.87;;
10493;SDS011;5294;49.410;8.698;2022-09-30T07:40:11;6.77;;;6.17;;
10493;SDS011;5294;49.410;8.698;2022-09-30T07:42:39;6.70;;;6.10;;
10493;SDS011;5294;49.410;8.698;2022-09-30T07:45:09;6.37;;;5.80;;
10493;SDS011;5294;49.410;8.698;2022-09-30T07:47:35;9.40;;;6.13;;
10493;SDS011;5294;49.410;8.698;2022-09-30T07:50:01;6.47;;;5.97;;
10493;SDS011;5294;49.410;8.698;2022-09-30T07:52:29;7.27;;;6.50;;
10493;SDS011;5294;49.410;8.698;2022-09-30T07:55:00;6.43;;;5.83;;
10493;SDS011;5294;49.410;8.698;2022-09-30T07:57:28;7.03;;;6.33;;
10493;SDS011;5294;49.410;8.698;2022-09-30T07:59:54;6.97;;;6.27;;
10493;SDS011;5294;49.410;8.698;2022-09-30T08:02:20;7.07;;;6.20;;
10493;SDS011;5294;49.410;8.698;2022-09-30T08:04:48;9.37;;;6.50;;
10493;SDS011;5294;49.410;8.698;2022-09-30T08:07:17;7.50;;;6.60;;
10493;SDS011;5294;49.410;8.698;2022-09-30T08:09:43;7.33;;;6.63;;
10493;SDS011;5294;49.410;8.698;2022-09-30T08:12:12;7.67;;;6.93;;
10493;SDS011;5294;49.410;8.698;2022-09-30T08:14:38;7.80;;;7.10;;
10493;SDS011;5294;49.410;8.698;2022-09-30T08:17:03;7.63;;;6.70;;
10493;SDS011;5294;49.410;8.698;2022-09-30T08:19:30;7.70;;;6.90;;
10493;SDS011;5294;49.410;8.698;2022-09-30T08:21:57;9.03;;;7.17;;
10493;SDS011;5294;49.410;8.698;2022-09-30T08:24:26;7.67;;;6.83;;
10493;SDS011;5294;49.410;8.698;2022-09-30T08:26:52;8.20;;;7.30;;
10493;SDS011;5294;49.410;8.698;2022-09-30T08:29:18;7.90;;;7.20;;
10493;SDS011;5294;49.410;8.698;2022-09-30T08:31:44;7.63;;;6.93;;
10493;SDS011;5294;49.410;8.698;2022-09-30T08:34:13;9.47;;;8.00;;
10493;SDS011;5294;49.410;8.698;2022-09-30T08:36:39;8.03;;;7.23;;
10493;SDS011;5294;49.410;8.698;2022-09-30T08:39:07;7.90;;;7.10;;
10493;SDS011;5294;49.410;8.698;2022-09-30T08:51:43;7.23;;;6.53;;
10493;SDS011;5294;49.410;8.698;2022-09-30T08:54:12;7.70;;;7.00;;
10493;SDS011;5294;49.410;8.698;2022-09-30T08:56:41;7.67;;;7.03;;
10493;SDS011;5294;49.410;8.698;2022-09-30T08:59:13;9.17;;;8.30;;
10493;SDS011;5294;49.410;8.698;2022-09-30T09:01:46;10.23;;;8.60;;
10493;SDS011;5294;49.410;8.698;2022-09-30T09:04:15;8.30;;;7.60;;
10493;SDS011;5294;49.410;8.698;2022-09-30T09:06:57;9.13;;;7.37;;
10493;SDS011;5294;49.410;8.698;2022-09-30T09:22:37;8.43;;;7.67;;
10493;SDS011;5294;49.410;8.698;2022-09-30T09:25:05;9.93;;;7.97;;
10493;SDS011;5294;49.410;8.698;2022-09-30T09:27:42;10.30;;;7.73;;
10493;SDS011;5294;49.410;8.698;2022-09-30T09:30:16;8.60;;;7.20;;
10493;SDS011;5294;49.410;8.698;2022-09-30T09:33:29;9.90;;;7.50;;
10493;SDS011;5294;49.410;8.698;2022-09-30T09:43:36;9.60;;;8.70;;
10493;SDS011;5294;49.410;8.698;2022-09-30T09:48:38;9.97;;;9.07;;
10493;SDS011;5294;49.410;8.698;2022-09-30T09:55:59;11.87;;;9.43;;
10493;SDS011;5294;49.410;8.698;2022-09-30T09:58:28;15.07;;;9.53;;
10493;SDS011;5294;49.410;8.698;2022-09-30T10:01:00;10.33;;;9.27;;
10493;SDS011;5294;49.410;8.698;2022-09-30T10:04:01;11.10;;;10.00;;
10493;SDS011;5294;49.410;8.698;2022-09-30T10:06:44;9.97;;;9.00;;
10493;SDS011;5294;49.410;8.698;2022-09-30T10:16:58;10.03;;;9.03;;
10493;SDS011;5294;49.410;8.698;2022-09-30T10:19:25;10.60;;;9.50;;
10493;SDS011;5294;49.410;8.698;2022-09-30T10:22:03;9.50;;;8.60;;
10493;SDS011;5294;49.410;8.698;2022-09-30T10:24:38;11.23;;;8.90;;
10493;SDS011;5294;49.410;8.698;2022-09-30T10:29:51;10.23;;;9.23;;
10493;SDS011;5294;49.410;8.698;2022-09-30T10:32:17;10.63;;;9.53;;
10493;SDS011;5294;49.410;8.698;2022-09-30T10:34:43;10.20;;;8.47;;
10493;SDS011;5294;49.410;8.698;2022-09-30T10:39:37;9.80;;;8.73;;
10493;SDS011;5294;49.410;8.698;2022-09-30T10:42:24;9.67;;;8.63;;
10493;SDS011;5294;49.410;8.698;2022-09-30T10:44:52;9.80;;;8.80;;
10493;SDS011;5294;49.410;8.698;2022-09-30T10:47:20;9.83;;;8.70;;
10493;SDS011;5294;49.410;8.698;2022-09-30T10:52:35;9.70;;;8.70;;
10493;SDS011;5294;49.410;8.698;2022-09-30T10:55:06;10.97;;;8.43;;
10493;SDS011;5294;49.410;8.698;2022-09-30T10:57:36;9.37;;;8.40;;
10493;SDS011;5294;49.410;8.698;2022-09-30T11:02:44;10.37;;;8.60;;
10493;SDS011;5294;49.410;8.698;2022-09-30T11:05:16;8.37;;;7.30;;
10493;SDS011;5294;49.410;8.698;2022-09-30T11:07:58;10.47;;;8.43;;
10493;SDS011;5294;49.410;8.698;2022-09-30T11:15:24;9.23;;;7.70;;
10493;SDS011;5294;49.410;8.698;2022-09-30T11:17:59;8.10;;;7.40;;
10493;SDS011;5294;49.410;8.698;2022-09-30T11:20:30;8.27;;;7.50;;
10493;SDS011;5294;49.410;8.698;2022-09-30T11:23:03;10.70;;;6.67;;
10493;SDS011;5294;49.410;8.698;2022-09-30T11:25:44;7.03;;;6.33;;
10493;SDS011;5294;49.410;8.698;2022-09-30T11:28:27;8.20;;;6.83;;
10493;SDS011;5294;49.410;8.698;2022-09-30T11:31:04;7.73;;;6.93;;
10493;SDS011;5294;49.410;8.698;2022-09-30T11:33:42;7.93;;;6.93;;
10493;SDS011;5294;49.410;8.698;2022-09-30T11:41:25;7.27;;;5.90;;
10493;SDS011;5294;49.410;8.698;2022-09-30T11:59:33;10.03;;;5.47;;
10493;SDS011;5294;49.410;8.698;2022-09-30T12:02:01;11.37;;;5.57;;
10493;SDS011;5294;49.410;8.698;2022-09-30T12:04:31;6.83;;;6.10;;
10493;SDS011;5294;49.410;8.698;2022-09-30T12:09:30;6.20;;;5.33;;
10493;SDS011;5294;49.410;8.698;2022-09-30T12:12:01;6.67;;;5.60;;
10493;SDS011;5294;49.410;8.698;2022-09-30T12:14:34;8.20;;;5.87;;
10493;SDS011;5294;49.410;8.698;2022-09-30T12:17:06;7.97;;;5.87;;
10493;SDS011;5294;49.410;8.698;2022-09-30T12:19:36;5.83;;;5.23;;
10493;SDS011;5294;49.410;8.698;2022-09-30T12:22:06;6.17;;;5.10;;
10493;SDS011;5294;49.410;8.698;2022-09-30T12:24:36;7.03;;;5.20;;
10493;SDS011;5294;49.410;8.698;2022-09-30T12:27:10;6.13;;;5.47;;
10493;SDS011;5294;49.410;8.698;2022-09-30T12:29:38;6.23;;;5.03;;
10493;SDS011;5294;49.410;8.698;2022-09-30T12:42:52;6.57;;;4.57;;
10493;SDS011;5294;49.410;8.698;2022-09-30T12:47:55;5.50;;;4.63;;
10493;SDS011;5294;49.410;8.698;2022-09-30T12:50:25;7.50;;;5.17;;
10493;SDS011;5294;49.410;8.698;2022-09-30T12:52:55;5.70;;;5.20;;
10493;SDS011;5294;49.410;8.698;2022-09-30T12:55:29;5.77;;;4.77;;
10493;SDS011;5294;49.410;8.698;2022-09-30T12:57:59;5.97;;;5.10;;
10493;SDS011;5294;49.410;8.698;2022-09-30T13:00:27;6.47;;;5.27;;
10493;SDS011;5294;49.410;8.698;2022-09-30T13:18:53;5.50;;;4.97;;
10493;SDS011;5294;49.410;8.698;2022-09-30T13:26:03;6.13;;;5.00;;
10493;SDS011;5294;49.410;8.698;2022-09-30T13:28:37;6.07;;;5.43;;
10493;SDS011;5294;49.410;8.698;2022-09-30T13:31:13;6.30;;;5.47;;
10493;SDS011;5294;49.410;8.698;2022-09-30T13:41:41;4.77;;;4.07;;
10493;SDS011;5294;49.410;8.698;2022-09-30T13:44:15;5.43;;;4.93;;
10493;SDS011;5294;49.410;8.698;2022-09-30T13:46:48;6.77;;;4.97;;
10493;SDS011;5294;49.410;8.698;2022-09-30T13:49:37;5.40;;;4.90;;
10493;SDS011;5294;49.410;8.698;2022-09-30T13:52:07;6.53;;;5.27;;
10493;SDS011;5294;49.410;8.698;2022-09-30T13:54:39;6.17;;;5.00;;
10493;SDS011;5294;49.410;8.698;2022-09-30T13:57:14;5.67;;;5.07;;
10493;SDS011;5294;49.410;8.698;2022-09-30T14:07:50;4.00;;;3.60;;
10493;SDS011;5294;49.410;8.698;2022-09-30T14:10:34;3.73;;;3.40;;
10493;SDS011;5294;49.410;8.698;2022-09-30T14:13:13;3.63;;;3.20;;
10493;SDS011;5294;49.410;8.698;2022-09-30T14:18:23;3.57;;;3.27;;
10493;SDS011;5294;49.410;8.698;2022-09-30T14:21:03;4.97;;;3.90;;
10493;SDS011;5294;49.410;8.698;2022-09-30T14:23:33;4.80;;;4.27;;
10493;SDS011;5294;49.410;8.698;2022-09-30T14:28:51;3.87;;;3.30;;
10493;SDS011;5294;49.410;8.698;2022-09-30T14:31:20;3.90;;;3.40;;
10493;SDS011;5294;49.410;8.698;2022-09-30T14:33:47;6.60;;;3.53;;
10493;SDS011;5294;49.410;8.698;2022-09-30T14:36:18;3.90;;;3.60;;
10493;SDS011;5294;49.410;8.698;2022-09-30T14:38:46;3.70;;;3.40;;
10493;SDS011;5294;49.410;8.698;2022-09-30T14:41:15;3.60;;;3.30;;
10493;SDS011;5294;49.410;8.698;2022-09-30T14:43:42;4.27;;;3.50;;
10493;SDS011;5294;49.410;8.698;2022-09-30T14:46:14;3.73;;;3.40;;
10493;SDS011;5294;49.410;8.698;2022-09-30T14:48:42;3.90;;;3.50;;
10493;SDS011;5294;49.410;8.698;2022-09-30T14:51:14;3.97;;;3.60;;
10493;SDS011;5294;49.410;8.698;2022-09-30T14:53:55;4.67;;;3.70;;
10493;SDS011;5294;49.410;8.698;2022-09-30T14:58:47;4.47;;;3.70;;
10493;SDS011;5294;49.410;8.698;2022-09-30T15:01:16;3.50;;;3.30;;
10493;SDS011;5294;49.410;8.698;2022-09-30T15:03:46;3.53;;;3.23;;
10493;SDS011;5294;49.410;8.698;2022-09-30T15:06:18;3.30;;;3.10;;
10493;SDS011;5294;49.410;8.698;2022-09-30T15:08:44;3.53;;;3.20;;
10493;SDS011;5294;49.410;8.698;2022-09-30T15:11:16;4.33;;;3.20;;
10493;SDS011;5294;49.410;8.698;2022-09-30T15:13:42;3.07;;;2.77;;
10493;SDS011;5294;49.410;8.698;2022-09-30T15:16:24;2.50;;;2.40;;
10493;SDS011;5294;49.410;8.698;2022-09-30T15:18:50;3.37;;;2.50;;
10493;SDS011;5294;49.410;8.698;2022-09-30T15:21:17;3.50;;;2.80;;
10493;SDS011;5294;49.410;8.698;2022-09-30T15:23:45;2.77;;;2.57;;
10493;SDS011;5294;49.410;8.698;2022-09-30T15:26:15;2.87;;;2.50;;
10493;SDS011;5294;49.410;8.698;2022-09-30T15:28:43;2.80;;;2.60;;
10493;SDS011;5294;49.410;8.698;2022-09-30T15:31:17;3.63;;;3.33;;
10493;SDS011;5294;49.410;8.698;2022-09-30T15:33:45;4.60;;;4.17;;
10493;SDS011;5294;49.410;8.698;2022-09-30T15:36:15;3.77;;;3.30;;
10493;SDS011;5294;49.410;8.698;2022-09-30T15:38:45;3.47;;;3.17;;
10493;SDS011;5294;49.410;8.698;2022-09-30T15:41:14;3.40;;;3.10;;
10493;SDS011;5294;49.410;8.698;2022-09-30T15:43:49;5.33;;;2.90;;
10493;SDS011;5294;49.410;8.698;2022-09-30T15:46:16;2.83;;;2.63;;
10493;SDS011;5294;49.410;8.698;2022-09-30T15:48:43;3.10;;;2.90;;
10493;SDS011;5294;49.410;8.698;2022-09-30T15:53:50;3.60;;;3.00;;
10493;SDS011;5294;49.410;8.698;2022-09-30T16:04:06;3.70;;;3.30;;
10493;SDS011;5294;49.410;8.698;2022-09-30T16:09:02;3.70;;;3.40;;
10493;SDS011;5294;49.410;8.698;2022-09-30T16:11:37;3.20;;;3.00;;
10493;SDS011;5294;49.410;8.698;2022-09-30T16:14:18;3.63;;;3.20;;
10493;SDS011;5294;49.410;8.698;2022-09-30T16:16:47;4.67;;;3.50;;
10493;SDS011;5294;49.410;8.698;2022-09-30T16:19:14;3.73;;;3.27;;
10493;SDS011;5294;49.410;8.698;2022-09-30T16:21:43;3.97;;;3.20;;
10493;SDS011;5294;49.410;8.698;2022-09-30T16:26:52;4.93;;;2.73;;
10493;SDS011;5294;49.410;8.698;2022-09-30T16:29:23;3.10;;;2.80;;
10493;SDS011;5294;49.410;8.698;2022-09-30T16:31:55;4.67;;;2.90;;
10493;SDS011;5294;49.410;8.698;2022-09-30T16:34:22;3.10;;;2.90;;
10493;SDS011;5294;49.410;8.698;2022-09-30T16:36:49;3.27;;;3.00;;
10493;SDS011;5294;49.410;8.698;2022-09-30T16:39:15;3.03;;;2.83;;
10493;SDS011;5294;49.410;8.698;2022-09-30T16:41:41;3.23;;;2.80;;
10493;SDS011;5294;49.410;8.698;2022-09-30T16:44:08;2.70;;;2.50;;
10493;SDS011;5294;49.410;8.698;2022-09-30T16:46:34;3.10;;;2.90;;
10493;SDS011;5294;49.410;8.698;2022-09-30T16:49:04;3.10;;;2.90;;
10493;SDS011;5294;49.410;8.698;2022-09-30T16:51:35;3.50;;;3.20;;
10493;SDS011;5294;49.410;8.698;2022-09-30T16:54:01;5.60;;;3.67;;
10493;SDS011;5294;49.410;8.698;2022-09-30T16:56:28;3.87;;;3.40;;
10493;SDS011;5294;49.410;8.698;2022-09-30T16:58:55;4.67;;;3.30;;
10493;SDS011;5294;49.410;8.698;2022-09-30T17:01:24;3.37;;;3.17;;
10493;SDS011;5294;49.410;8.698;2022-09-30T17:03:51;3.43;;;3.13;;
10493;SDS011;5294;49.410;8.698;2022-09-30T17:06:18;3.30;;;3.00;;
10493;SDS011;5294;49.410;8.698;2022-09-30T17:08:47;4.27;;;2.90;;
10493;SDS011;5294;49.410;8.698;2022-09-30T17:11:16;2.80;;;2.60;;
10493;SDS011;5294;49.410;8.698;2022-09-30T17:13:43;3.53;;;3.10;;
10493;SDS011;5294;49.410;8.698;2022-09-30T17:16:09;4.50;;;3.43;;
10493;SDS011;5294;49.410;8.698;2022-09-30T17:18:35;3.57;;;3.33;;
10493;SDS011;5294;49.410;8.698;2022-09-30T17:21:01;3.63;;;3.10;;
10493;SDS011;5294;49.410;8.698;2022-09-30T17:23:27;13.30;;;3.80;;
10493;SDS011;5294;49.410;8.698;2022-09-30T17:25:53;5.13;;;3.50;;
10493;SDS011;5294;49.410;8.698;2022-09-30T17:28:19;4.20;;;3.63;;
10493;SDS011;5294;49.410;8.698;2022-09-30T17:30:46;6.60;;;4.50;;
10493;SDS011;5294;49.410;8.698;2022-09-30T17:33:17;5.13;;;4.73;;
10493;SDS011;5294;49.410;8.698;2022-09-30T17:35:43;5.57;;;5.07;;
10493;SDS011;5294;49.410;8.698;2022-09-30T17:38:12;8.07;;;4.00;;
10493;SDS011;5294;49.410;8.698;2022-09-30T17:40:40;4.07;;;3.77;;
10493;SDS011;5294;49.410;8.698;2022-09-30T17:43:25;4.20;;;3.80;;
10493;SDS011;5294;49.410;8.698;2022-09-30T17:45:50;5.43;;;3.70;;
10493;SDS011;5294;49.410;8.698;2022-09-30T17:48:19;4.40;;;3.50;;
10493;SDS011;5294;49.410;8.698;2022-09-30T17:50:47;3.87;;;3.13;;
10493;SDS011;5294;49.410;8.698;2022-09-30T17:53:17;4.13;;;3.73;;
10493;SDS011;5294;49.410;8.698;2022-09-30T17:55:44;5.13;;;3.73;;
10493;SDS011;5294;49.410;8.698;2022-09-30T17:58:11;4.57;;;4.00;;
10493;SDS011;5294;49.410;8.698;2022-09-30T18:00:37;5.63;;;4.40;;
10493;SDS011;5294;49.410;8.698;2022-09-30T18:03:03;4.93;;;4.00;;
10493;SDS011;5294;49.410;8.698;2022-09-30T18:05:33;6.07;;;5.03;;
10493;SDS011;5294;49.410;8.698;2022-09-30T18:08:01;7.33;;;5.17;;
10493;SDS011;5294;49.410;8.698;2022-09-30T18:10:30;6.13;;;5.53;;
10493;SDS011;5294;49.410;8.698;2022-09-30T18:13:01;6.23;;;5.13;;
10493;SDS011;5294;49.410;8.698;2022-09-30T18:15:27;6.03;;;4.80;;
10493;SDS011;5294;49.410;8.698;2022-09-30T18:17:53;6.20;;;5.60;;
10493;SDS011;5294;49.410;8.698;2022-09-30T18:20:19;5.90;;;4.50;;
10493;SDS011;5294;49.410;8.698;2022-09-30T18:22:45;4.50;;;4.10;;
10493;SDS011;5294;49.410;8.698;2022-09-30T18:25:16;4.43;;;3.90;;
10493;SDS011;5294;49.410;8.698;2022-09-30T18:27:49;4.30;;;3.90;;
10493;SDS011;5294;49.410;8.698;2022-09-30T18:30:16;4.70;;;4.23;;
10493;SDS011;5294;49.410;8.698;2022-09-30T18:32:45;4.77;;;4.30;;
10493;SDS011;5294;49.410;8.698;2022-09-30T18:35:12;5.10;;;4.70;;
10493;SDS011;5294;49.410;8.698;2022-09-30T18:37:42;6.00;;;5.07;;
10493;SDS011;5294;49.410;8.698;2022-09-30T18:40:11;6.33;;;5.73;;
10493;SDS011;5294;49.410;8.698;2022-09-30T18:42:39;6.10;;;5.27;;
10493;SDS011;5294;49.410;8.698;2022-09-30T18:45:06;5.70;;;5.20;;